Terminal Aerodrome Forecast
Issued by NWS

Home | Current Version | Previous Version | Text Only | Print | Product List | Glossary On
Versions: 1 2 3 4 5 6 7 8 9 10 11 12 13 14 15 16
972
FTUS45 KABQ 301740
TAFGUP
TAF
KGUP 301740Z 3018/0118 23010KT P6SM VCSH SCT040 BKN060
     FM010000 06008KT P6SM VCSH OVC040
      TEMPO 0100/0104 5SM -RA BKN030
     FM010400 08006KT 6SM -RA OVC030
      TEMPO 0108/0112 3SM -RA BR OVC015
     FM011500 14013G22KT P6SM VCSH OVC025=

USA.gov is the U.S. government's official web portal to all federal, state and local government web resources and services.